createdAt,value
2023-02-28T00:00:11.342Z,85.18
2023-02-28T00:02:42.210Z,85.40
2023-02-28T00:05:12.923Z,85.61
2023-02-28T00:07:41.704Z,85.88
2023-02-28T00:10:13.488Z,85.57
2023-02-28T00:12:42.968Z,85.75
2023-02-28T00:15:15.779Z,85.63
2023-02-28T00:17:46.075Z,85.92
2023-02-28T00:20:15.577Z,86.46
2023-02-28T00:25:58.796Z,86.61
2023-02-28T00:28:31.917Z,86.37
2023-02-28T00:31:01.242Z,86.41
2023-02-28T00:33:31.552Z,86.25
2023-02-28T00:36:08.058Z,86.37
2023-02-28T00:38:37.024Z,86.84
2023-02-28T00:41:06.171Z,86.81
2023-02-28T00:43:36.317Z,85.95
2023-02-28T00:46:09.241Z,86.36
2023-02-28T00:48:39.940Z,86.37
2023-02-28T00:51:08.922Z,86.77
2023-02-28T00:53:37.762Z,86.71
2023-02-28T00:56:07.126Z,86.60
2023-02-28T00:58:37.740Z,87.12
2023-02-28T01:01:07.109Z,87.14
2023-02-28T01:03:35.804Z,86.69
2023-02-28T01:06:06.348Z,87.54
2023-02-28T01:08:35.286Z,88.37
2023-02-28T01:11:12.548Z,88.31
2023-02-28T01:13:41.118Z,87.53
2023-02-28T01:16:10.673Z,88.11
2023-02-28T01:18:39.761Z,88.95
2023-02-28T01:21:15.490Z,88.63
2023-02-28T01:23:47.702Z,89.35
2023-02-28T01:26:19.239Z,88.99
2023-02-28T01:28:47.981Z,88.81
2023-02-28T01:31:17.292Z,88.63
2023-02-28T01:33:46.111Z,88.50
2023-02-28T01:36:18.212Z,89.04
2023-02-28T01:38:47.349Z,89.20
2023-02-28T01:41:18.882Z,89.53
2023-02-28T01:44:05.181Z,90.05
2023-02-28T01:46:33.833Z,89.73
2023-02-28T01:49:06.045Z,90.54
2023-02-28T01:51:39.704Z,89.85
2023-02-28T01:54:14.833Z,90.42
2023-02-28T01:56:46.182Z,90.56
2023-02-28T01:59:17.463Z,90.54
2023-02-28T02:01:46.089Z,91.17
2023-02-28T02:04:15.085Z,90.87
2023-02-28T02:06:47.391Z,90.65
2023-02-28T02:09:16.105Z,91.03
2023-02-28T02:11:46.073Z,90.56
2023-02-28T02:14:44.498Z,90.52
2023-02-28T02:17:22.272Z,91.15
2023-02-28T02:20:44.554Z,90.51
2023-02-28T02:23:54.306Z,90.42
2023-02-28T02:26:49.449Z,90.78
2023-02-28T02:29:40.753Z,90.85
2023-02-28T02:32:23.175Z,90.91
2023-02-28T02:34:58.975Z,91.97
2023-02-28T02:37:32.483Z,92.15
2023-02-28T02:40:05.848Z,91.84
2023-02-28T02:42:39.109Z,92.01
2023-02-28T02:45:10.027Z,92.07
2023-02-28T02:47:40.160Z,91.98
2023-02-28T02:50:14.638Z,91.69
2023-02-28T02:52:46.141Z,92.38
2023-02-28T02:55:15.983Z,91.88
2023-02-28T02:57:48.576Z,92.40
2023-02-28T03:00:19.032Z,92.49
2023-02-28T03:02:48.314Z,92.42
2023-02-28T03:05:22.717Z,93.12
2023-02-28T03:07:51.587Z,92.98
2023-02-28T03:10:32.482Z,92.25
2023-02-28T03:13:18.272Z,92.41
2023-02-28T03:15:57.809Z,93.09
2023-02-28T03:18:33.454Z,93.66
2023-02-28T03:21:09.917Z,92.48
2023-02-28T03:23:43.318Z,93.34
2023-02-28T03:26:19.053Z,93.73
2023-02-28T03:28:53.592Z,93.57
2023-02-28T03:31:24.437Z,92.97
2023-02-28T03:33:57.581Z,93.31
2023-02-28T03:36:33.600Z,93.44
2023-02-28T03:39:05.175Z,93.56
2023-02-28T03:41:37.629Z,93.76
2023-02-28T03:44:09.864Z,93.09
2023-02-28T03:46:43.482Z,93.47
2023-02-28T03:50:31.834Z,93.73
2023-02-28T03:53:13.332Z,92.99
2023-02-28T03:55:44.517Z,93.63
2023-02-28T03:58:20.273Z,93.28
2023-02-28T04:00:51.785Z,93.83
2023-02-28T04:03:20.319Z,93.50
2023-02-28T04:05:53.958Z,93.45
2023-02-28T04:08:25.366Z,93.68
2023-02-28T04:10:57.083Z,94.02
2023-02-28T04:13:26.030Z,94.40
2023-02-28T04:15:54.900Z,93.70
2023-02-28T04:18:23.457Z,94.25
2023-02-28T04:20:51.857Z,94.30
2023-02-28T04:23:20.682Z,94.44
2023-02-28T04:26:09.148Z,94.18
2023-02-28T04:28:39.700Z,94.89
2023-02-28T04:31:08.429Z,94.38
2023-02-28T04:33:37.536Z,94.83
2023-02-28T04:36:08.486Z,95.12
2023-02-28T04:38:38.585Z,95.14
2023-02-28T04:41:09.003Z,94.97
2023-02-28T04:43:37.851Z,95.68
2023-02-28T04:46:07.607Z,95.35
2023-02-28T04:48:41.807Z,95.89
2023-02-28T04:51:12.481Z,95.91
2023-02-28T04:54:01.604Z,96.08
2023-02-28T04:56:32.158Z,95.71
2023-02-28T04:59:08.266Z,96.63
2023-02-28T05:01:37.587Z,96.36
2023-02-28T05:04:08.676Z,97.24
2023-02-28T05:06:37.487Z,97.16
2023-02-28T05:09:06.320Z,97.37
2023-02-28T05:11:37.204Z,97.77
2023-02-28T05:14:06.521Z,97.28
2023-02-28T05:16:35.278Z,97.77
2023-02-28T05:19:04.375Z,97.45
2023-02-28T05:21:35.015Z,97.33
2023-02-28T05:24:05.404Z,97.55
2023-02-28T05:26:41.521Z,97.87
2023-02-28T05:29:18.906Z,97.68
2023-02-28T05:31:51.420Z,97.65
2023-02-28T05:34:19.956Z,98.19
2023-02-28T05:36:48.455Z,98.35
2023-02-28T05:39:17.153Z,98.32
2023-02-28T05:41:47.113Z,98.77
2023-02-28T05:44:15.534Z,98.20
2023-02-28T05:46:44.359Z,98.56
2023-02-28T05:49:12.820Z,98.93
2023-02-28T05:51:41.888Z,99.41
2023-02-28T05:54:13.516Z,99.14
2023-02-28T05:56:45.234Z,99.87
2023-02-28T05:59:17.285Z,99.42
2023-02-28T06:01:49.468Z,99.34
2023-02-28T06:04:31.216Z,99.22
2023-02-28T06:07:00.661Z,98.99
2023-02-28T06:09:30.196Z,99.10
2023-02-28T06:12:00.167Z,100.00
2023-02-28T06:14:30.178Z,100.00
2023-02-28T06:17:01.469Z,100.00
2023-02-28T06:19:31.454Z,100.00
2023-02-28T06:22:01.016Z,100.00
2023-02-28T06:24:31.631Z,100.00
2023-02-28T06:27:06.183Z,99.80
2023-02-28T06:29:37.216Z,99.55
2023-02-28T06:32:05.831Z,98.78
2023-02-28T06:34:35.423Z,98.54
2023-02-28T06:37:03.735Z,97.34
2023-02-28T06:39:32.617Z,97.33
2023-02-28T06:42:01.164Z,96.37
2023-02-28T06:44:36.561Z,95.17
2023-02-28T06:47:10.423Z,95.16
2023-02-28T06:49:40.265Z,94.87
2023-02-28T06:52:09.957Z,93.76
2023-02-28T06:54:39.858Z,94.48
2023-02-28T06:57:08.765Z,93.30
2023-02-28T07:00:02.857Z,93.53
2023-02-28T07:02:32.973Z,92.21
2023-02-28T07:05:01.544Z,92.24
2023-02-28T07:07:30.362Z,92.35
2023-02-28T07:09:59.370Z,91.53
2023-02-28T07:12:28.454Z,90.87
2023-02-28T07:14:58.502Z,90.52
2023-02-28T07:17:27.581Z,89.83
2023-02-28T07:19:57.557Z,89.06
2023-02-28T07:22:26.205Z,89.12
2023-02-28T07:24:54.738Z,89.65
2023-02-28T07:27:26.859Z,88.75
2023-02-28T07:30:02.919Z,88.60
2023-02-28T07:32:34.394Z,87.95
2023-02-28T07:35:04.491Z,87.67
2023-02-28T07:37:37.701Z,87.63
2023-02-28T07:40:09.439Z,86.83
2023-02-28T07:42:38.097Z,86.01
2023-02-28T07:45:13.530Z,85.89
2023-02-28T07:47:46.803Z,85.99
2023-02-28T07:50:17.647Z,85.83
2023-02-28T07:52:46.434Z,84.74
2023-02-28T07:55:16.741Z,84.18
2023-02-28T07:57:45.985Z,83.30
2023-02-28T08:00:16.674Z,82.37
2023-02-28T08:02:47.329Z,82.32
2023-02-28T08:05:19.456Z,81.04
2023-02-28T08:07:51.990Z,81.03
2023-02-28T08:10:20.765Z,81.40
2023-02-28T08:12:49.647Z,80.15
2023-02-28T08:15:18.382Z,79.53
2023-02-28T08:17:47.069Z,78.21
2023-02-28T08:20:17.170Z,78.38
2023-02-28T08:22:47.697Z,77.00
2023-02-28T08:25:16.271Z,76.04
2023-02-28T08:27:46.141Z,77.03
2023-02-28T08:30:16.460Z,76.71
2023-02-28T08:32:45.363Z,75.72
2023-02-28T08:35:14.419Z,74.63
2023-02-28T08:37:44.442Z,73.50
2023-02-28T08:40:19.234Z,73.88
2023-02-28T08:42:48.313Z,72.83
2023-02-28T08:45:17.500Z,71.62
2023-02-28T08:47:47.635Z,71.42
2023-02-28T08:50:17.945Z,71.69
2023-02-28T08:52:48.396Z,71.35
2023-02-28T08:55:17.349Z,69.58
2023-02-28T08:57:46.005Z,69.98
2023-02-28T09:00:18.360Z,68.88
2023-02-28T09:02:46.907Z,67.80
2023-02-28T09:05:15.354Z,62.94
2023-02-28T09:07:44.033Z,53.72
2023-02-28T09:10:15.259Z,47.34
2023-02-28T09:12:43.897Z,44.44
2023-02-28T09:15:16.537Z,39.53
2023-02-28T09:17:46.980Z,38.48
2023-02-28T09:20:16.817Z,37.52
2023-02-28T09:22:45.825Z,36.34
2023-02-28T09:25:15.868Z,37.26
2023-02-28T09:27:47.662Z,38.32
2023-02-28T09:30:17.546Z,41.26
2023-02-28T09:32:53.164Z,43.69
2023-02-28T09:35:22.358Z,47.27
2023-02-28T09:38:04.026Z,50.19
2023-02-28T09:40:34.462Z,51.67
2023-02-28T09:43:03.128Z,56.16
2023-02-28T09:45:35.170Z,58.48
2023-02-28T09:48:07.115Z,58.38
2023-02-28T09:50:38.980Z,57.20
2023-02-28T09:53:14.092Z,56.56
2023-02-28T09:55:47.468Z,54.94
2023-02-28T09:58:20.582Z,56.08
2023-02-28T10:00:55.226Z,54.82
2023-02-28T10:03:35.543Z,57.57
2023-02-28T10:06:10.017Z,57.81
2023-02-28T10:09:04.009Z,54.33
2023-02-28T10:11:35.877Z,53.88
2023-02-28T10:14:07.537Z,51.36
2023-02-28T10:16:38.803Z,50.20
2023-02-28T10:19:12.643Z,47.38
2023-02-28T10:21:45.841Z,46.47
2023-02-28T10:24:22.889Z,45.27
2023-02-28T10:27:08.760Z,46.33
2023-02-28T10:29:37.996Z,43.67
2023-02-28T10:32:13.201Z,40.13
2023-02-28T10:34:41.646Z,35.09
2023-02-28T10:37:10.403Z,35.81
2023-02-28T10:39:44.065Z,36.10
2023-02-28T10:42:27.276Z,34.26
2023-02-28T10:45:13.454Z,33.11
2023-02-28T10:47:53.979Z,34.78
2023-02-28T10:50:32.100Z,37.54
2023-02-28T10:53:27.526Z,36.52
2023-02-28T10:56:00.221Z,36.60
2023-02-28T10:58:32.874Z,35.25
2023-02-28T11:01:02.392Z,35.22
2023-02-28T11:03:34.360Z,34.95
2023-02-28T11:06:09.150Z,33.05
2023-02-28T11:08:47.408Z,31.78
2023-02-28T11:11:18.138Z,30.63
2023-02-28T11:13:51.193Z,30.80
2023-02-28T11:16:19.744Z,32.31
2023-02-28T11:18:51.450Z,32.29
2023-02-28T11:21:26.256Z,34.99
2023-02-28T11:24:03.404Z,37.94
2023-02-28T11:26:43.828Z,38.77
2023-02-28T11:29:22.467Z,42.69
2023-02-28T11:32:07.356Z,44.36
2023-02-28T11:34:35.887Z,43.90
2023-02-28T11:37:06.822Z,45.74
2023-02-28T11:39:35.928Z,48.69
2023-02-28T11:42:30.181Z,51.33
2023-02-28T11:45:10.127Z,54.03
2023-02-28T11:47:47.652Z,53.91
2023-02-28T11:50:24.032Z,52.68
2023-02-28T11:52:55.808Z,51.68
2023-02-28T11:55:28.927Z,51.59
2023-02-28T11:58:23.098Z,48.71
2023-02-28T12:01:07.578Z,45.42
2023-02-28T12:03:45.653Z,44.90
2023-02-28T12:06:21.136Z,46.55
2023-02-28T12:08:59.346Z,47.46
2023-02-28T12:11:36.712Z,49.58
2023-02-28T12:14:32.990Z,49.54
2023-02-28T12:17:14.212Z,49.24
2023-02-28T12:19:48.496Z,49.64
2023-02-28T12:22:31.714Z,49.06
2023-02-28T12:25:42.444Z,48.67
2023-02-28T12:28:17.986Z,50.67
2023-02-28T12:30:56.367Z,52.67
2023-02-28T12:33:30.633Z,54.31
2023-02-28T12:36:01.341Z,57.01
2023-02-28T12:38:31.723Z,57.33
2023-02-28T12:41:03.605Z,57.56
2023-02-28T12:43:36.590Z,59.20
2023-02-28T12:46:11.472Z,59.79
2023-02-28T12:48:44.848Z,59.15
2023-02-28T12:51:15.725Z,58.23
2023-02-28T12:53:53.824Z,59.49
2023-02-28T12:56:28.838Z,57.98
2023-02-28T12:59:01.257Z,59.21
2023-02-28T13:02:12.785Z,58.59
2023-02-28T13:04:58.119Z,61.11
2023-02-28T13:08:02.074Z,60.20
2023-02-28T13:10:44.587Z,59.38
2023-02-28T13:13:18.779Z,59.08
2023-02-28T13:16:05.414Z,59.58
2023-02-28T13:18:40.873Z,57.91
2023-02-28T13:21:12.814Z,58.17
2023-02-28T13:24:00.820Z,58.64
2023-02-28T13:27:06.995Z,58.28
2023-02-28T13:29:38.000Z,57.04
2023-02-28T13:32:40.230Z,54.73
2023-02-28T13:35:37.908Z,54.51
2023-02-28T13:38:35.596Z,54.84
2023-02-28T13:41:43.111Z,56.14
2023-02-28T13:44:15.733Z,55.05
2023-02-28T13:47:21.482Z,56.04
2023-02-28T13:49:50.527Z,55.24
2023-02-28T13:52:22.320Z,52.89
2023-02-28T13:55:22.965Z,52.82
2023-02-28T13:58:16.239Z,52.65
2023-02-28T14:01:00.173Z,49.56
2023-02-28T14:03:44.667Z,48.00
2023-02-28T14:06:25.144Z,48.23
2023-02-28T14:09:00.558Z,45.99
2023-02-28T14:11:33.675Z,46.83
2023-02-28T14:14:03.091Z,49.26
2023-02-28T14:16:50.887Z,49.03
2023-02-28T14:19:24.885Z,49.17
2023-02-28T14:22:05.405Z,52.49
2023-02-28T14:24:55.478Z,54.56
2023-02-28T14:27:40.471Z,51.91
2023-02-28T14:30:44.906Z,46.26
2023-02-28T14:33:29.431Z,44.87
2023-02-28T14:36:06.174Z,47.43
2023-02-28T14:38:38.164Z,51.15
2023-02-28T14:41:14.874Z,53.22
2023-02-28T14:43:59.502Z,53.39
2023-02-28T14:46:31.472Z,54.19
2023-02-28T14:49:01.326Z,50.35
2023-02-28T14:51:30.499Z,45.73
2023-02-28T14:54:01.892Z,43.15
2023-02-28T14:56:37.521Z,42.26
2023-02-28T14:59:08.485Z,40.68
2023-02-28T15:01:37.188Z,41.88
2023-02-28T15:04:08.187Z,42.76
2023-02-28T15:06:37.135Z,42.58
2023-02-28T15:09:11.005Z,45.50
2023-02-28T15:11:49.262Z,48.11
2023-02-28T15:14:22.253Z,50.50
2023-02-28T15:16:54.469Z,50.76
2023-02-28T15:19:26.523Z,50.81
2023-02-28T15:21:57.431Z,52.82
2023-02-28T15:24:35.857Z,53.41
2023-02-28T15:27:07.125Z,53.94
2023-02-28T15:29:47.419Z,56.33
2023-02-28T15:32:31.281Z,57.32
2023-02-28T15:35:02.218Z,58.29
2023-02-28T15:37:35.955Z,58.81
2023-02-28T15:40:30.001Z,59.05
2023-02-28T15:43:06.317Z,58.74
2023-02-28T15:45:45.824Z,59.64
2023-02-28T15:48:23.542Z,58.73
2023-02-28T15:50:54.584Z,58.15
2023-02-28T15:53:25.602Z,57.44
2023-02-28T15:55:57.461Z,57.60
2023-02-28T15:58:27.407Z,57.38
2023-02-28T16:01:21.912Z,59.78
2023-02-28T16:04:18.746Z,61.13
2023-02-28T16:06:49.642Z,61.92
2023-02-28T16:09:18.728Z,62.96
2023-02-28T16:11:49.520Z,63.99
2023-02-28T16:14:20.212Z,65.52
2023-02-28T16:16:51.895Z,66.31
2023-02-28T16:19:20.682Z,67.04
2023-02-28T16:21:50.227Z,67.54
2023-02-28T16:24:18.916Z,68.07
2023-02-28T16:26:50.354Z,68.73
2023-02-28T16:29:24.240Z,68.81
2023-02-28T16:31:55.023Z,69.69
2023-02-28T16:34:23.989Z,69.79
2023-02-28T16:36:53.232Z,70.42
2023-02-28T16:39:22.648Z,70.60
2023-02-28T16:41:51.587Z,71.44
2023-02-28T16:44:31.778Z,72.00
2023-02-28T16:47:02.762Z,71.56
2023-02-28T16:49:31.661Z,72.18
2023-02-28T16:52:00.094Z,72.97
2023-02-28T16:54:28.727Z,74.10
2023-02-28T16:56:57.512Z,74.06
2023-02-28T16:59:27.495Z,75.01
2023-02-28T17:01:58.101Z,75.27
2023-02-28T17:04:28.882Z,76.94
2023-02-28T17:06:57.537Z,76.33
2023-02-28T17:09:40.081Z,76.10
2023-02-28T17:12:10.433Z,77.04
2023-02-28T17:14:47.003Z,78.69
2023-02-28T17:17:18.918Z,79.42
2023-02-28T17:19:48.768Z,79.96
2023-02-28T17:22:17.255Z,80.29
2023-02-28T17:24:46.792Z,81.44
2023-02-28T17:27:15.661Z,82.03
2023-02-28T17:29:44.662Z,81.43
2023-02-28T17:32:18.558Z,81.23
2023-02-28T17:34:48.820Z,81.39
2023-02-28T17:37:17.844Z,81.38
2023-02-28T17:39:46.663Z,82.31
2023-02-28T17:42:15.558Z,82.88
2023-02-28T17:44:44.358Z,81.73
2023-02-28T17:47:14.345Z,81.76
2023-02-28T17:49:43.919Z,81.06
2023-02-28T17:52:15.147Z,80.05
2023-02-28T17:54:45.896Z,80.42
2023-02-28T17:57:18.027Z,80.47
2023-02-28T17:59:46.931Z,79.55
2023-02-28T18:02:16.515Z,79.65
2023-02-28T18:04:48.482Z,81.12
2023-02-28T18:07:18.288Z,80.75
2023-02-28T18:09:46.989Z,80.83
2023-02-28T18:12:18.682Z,80.77
2023-02-28T18:14:48.867Z,80.68
2023-02-28T18:17:18.021Z,81.45
2023-02-28T18:19:46.285Z,81.26
2023-02-28T18:22:17.906Z,81.33
2023-02-28T18:25:17.190Z,82.02
2023-02-28T18:27:58.449Z,81.37
2023-02-28T18:30:34.419Z,81.78
2023-02-28T18:33:06.210Z,81.57
2023-02-28T18:35:37.975Z,81.69
2023-02-28T18:38:09.292Z,81.58
2023-02-28T18:40:39.567Z,81.63
2023-02-28T18:43:08.241Z,82.12
2023-02-28T18:45:39.227Z,82.56
2023-02-28T18:48:08.160Z,82.41
2023-02-28T18:50:38.960Z,82.25
2023-02-28T18:53:07.321Z,82.02
2023-02-28T18:55:35.910Z,82.06
2023-02-28T18:58:05.921Z,82.52
2023-02-28T19:00:39.789Z,82.60
2023-02-28T19:03:08.821Z,82.28
2023-02-28T19:05:38.711Z,82.58
2023-02-28T19:08:07.507Z,82.16
2023-02-28T19:10:36.485Z,81.89
2023-02-28T19:13:09.675Z,82.16
2023-02-28T19:15:39.410Z,82.19
2023-02-28T19:18:08.643Z,82.12
2023-02-28T19:20:40.148Z,81.92
2023-02-28T19:23:10.680Z,83.38
2023-02-28T19:25:42.294Z,83.68
2023-02-28T19:28:12.406Z,83.64
2023-02-28T19:30:41.719Z,84.01
2023-02-28T19:33:10.566Z,85.03
2023-02-28T19:35:41.546Z,85.48
2023-02-28T19:38:10.345Z,85.53
2023-02-28T19:40:39.284Z,85.21
2023-02-28T19:43:08.570Z,84.64
2023-02-28T19:45:43.579Z,85.38
2023-02-28T19:48:12.547Z,85.98
2023-02-28T19:50:44.136Z,86.22
2023-02-28T19:53:13.390Z,86.09
2023-02-28T19:55:43.154Z,86.81
2023-02-28T19:58:14.884Z,86.88
2023-02-28T20:00:47.618Z,87.25
2023-02-28T20:03:18.557Z,87.07
2023-02-28T20:05:48.082Z,87.50
2023-02-28T20:08:17.064Z,87.77
2023-02-28T20:10:45.490Z,87.95
2023-02-28T20:13:16.694Z,87.96
2023-02-28T20:15:49.451Z,87.43
2023-02-28T20:18:20.490Z,87.18
2023-02-28T20:20:51.842Z,87.20
2023-02-28T20:23:20.309Z,87.46
2023-02-28T20:25:49.150Z,88.00
2023-02-28T20:28:17.935Z,87.77
2023-02-28T20:30:49.810Z,86.83
2023-02-28T20:33:22.284Z,85.91
2023-02-28T20:35:55.281Z,85.54
2023-02-28T20:38:23.755Z,85.09
2023-02-28T20:40:58.157Z,85.18
2023-02-28T20:43:26.928Z,84.74
2023-02-28T20:46:03.211Z,85.17
2023-02-28T20:48:38.934Z,85.09
2023-02-28T20:51:08.174Z,84.52
2023-02-28T20:53:37.623Z,83.47
2023-02-28T20:56:09.299Z,83.91
2023-02-28T20:58:39.528Z,83.42
2023-02-28T21:01:13.923Z,83.38
2023-02-28T21:03:42.774Z,83.35
2023-02-28T21:06:12.237Z,83.40
2023-02-28T21:08:41.229Z,83.86
2023-02-28T21:11:11.229Z,84.62
2023-02-28T21:13:39.927Z,85.37
2023-02-28T21:16:12.291Z,85.26
2023-02-28T21:18:41.233Z,85.52
2023-02-28T21:21:12.642Z,86.51
2023-02-28T21:23:45.433Z,87.85
2023-02-28T21:26:16.821Z,88.30
2023-02-28T21:28:45.837Z,88.78
2023-02-28T21:31:17.635Z,89.40
2023-02-28T21:33:47.206Z,90.13
2023-02-28T21:36:17.639Z,90.48
2023-02-28T21:38:47.531Z,90.43
2023-02-28T21:41:19.041Z,90.74
2023-02-28T21:43:48.173Z,91.37
2023-02-28T21:46:20.922Z,91.97
2023-02-28T21:48:50.356Z,92.85
2023-02-28T21:51:21.227Z,92.97
2023-02-28T21:53:50.638Z,93.08
2023-02-28T21:56:21.310Z,92.87
2023-02-28T21:58:50.552Z,93.29
2023-02-28T22:01:24.820Z,93.44
2023-02-28T22:03:54.566Z,93.73
2023-02-28T22:06:25.888Z,93.88
2023-02-28T22:08:56.383Z,93.79
2023-02-28T22:11:25.389Z,94.16
2023-02-28T22:14:04.022Z,94.53
2023-02-28T22:16:49.942Z,95.84
2023-02-28T22:19:29.369Z,95.65
2023-02-28T22:21:58.407Z,94.59
2023-02-28T22:24:26.910Z,94.33
2023-02-28T22:26:55.826Z,93.89
2023-02-28T22:29:24.684Z,94.39
2023-02-28T22:31:57.540Z,94.10
2023-02-28T22:34:26.123Z,93.67
2023-02-28T22:36:57.541Z,93.08
2023-02-28T22:39:26.307Z,93.76
2023-02-28T22:41:56.637Z,92.39
2023-02-28T22:44:25.165Z,92.10
2023-02-28T22:46:54.613Z,91.84
2023-02-28T22:49:25.257Z,91.41
2023-02-28T22:51:53.884Z,91.08
2023-02-28T22:54:22.377Z,90.70
2023-02-28T22:56:50.658Z,90.31
2023-02-28T22:59:19.142Z,89.93
2023-02-28T23:01:48.012Z,89.23
2023-02-28T23:04:16.623Z,90.24
2023-02-28T23:06:47.148Z,89.59
2023-02-28T23:09:18.749Z,89.33
2023-02-28T23:11:48.426Z,89.04
2023-02-28T23:14:21.656Z,88.57
2023-02-28T23:16:51.716Z,89.10
2023-02-28T23:19:45.160Z,89.30
2023-02-28T23:22:15.380Z,89.77
2023-02-28T23:24:44.211Z,90.55
2023-02-28T23:27:12.768Z,89.91
2023-02-28T23:29:41.293Z,90.06
2023-02-28T23:32:10.011Z,90.92
2023-02-28T23:34:38.998Z,90.87
2023-02-28T23:37:07.662Z,90.96
2023-02-28T23:39:37.721Z,91.35
2023-02-28T23:42:06.653Z,91.51
2023-02-28T23:44:35.484Z,92.09
2023-02-28T23:47:04.508Z,92.03
2023-02-28T23:49:33.189Z,91.45
2023-02-28T23:52:01.905Z,92.40
2023-02-28T23:54:30.441Z,92.95
2023-02-28T23:57:00.570Z,92.68
2023-02-28T23:59:29.187Z,92.83
